Time;durP1;ratioP1;P1;durP2;ratioP2;P2;SDS_P1;SDS_P2;PMS_P1;PMS_P2;Temp;Humidity;BMP_temperature;BMP_pressure;BME280_temperature;BME280_humidity;BME280_pressure;Samples;Min_cycle;Max_cycle;Signal;HPM_P1;HPM_P2
2022/03/21 00:00:50;;;;;;;63.97;44.83;;;;;;;1.79;71.04;102875.72;5044705;28;20042;-56
2022/03/21 00:03:18;;;;;;;58.07;44.03;;;;;;;1.61;70.70;102886.78;5034600;28;20484;-57
2022/03/21 00:05:45;;;;;;;59.30;43.93;;;;;;;1.58;70.71;102888.66;5036648;28;20029;-57
2022/03/21 00:08:11;;;;;;;59.17;43.37;;;;;;;1.58;70.89;102888.66;5034371;28;20040;-57
2022/03/21 00:10:38;;;;;;;57.60;43.67;;;;;;;1.53;70.44;102885.34;5035084;28;20468;-57
2022/03/21 00:13:04;;;;;;;58.30;43.03;;;;;;;1.57;70.48;102881.69;5034926;28;20047;-56
2022/03/21 00:15:31;;;;;;;57.43;41.30;;;;;;;1.59;70.59;102877.28;5041344;28;20029;-56
2022/03/21 00:17:56;;;;;;;58.90;43.10;;;;;;;1.61;70.69;102885.91;5028826;28;20029;-56
2022/03/21 00:20:22;;;;;;;59.63;43.57;;;;;;;1.60;70.49;102894.69;5034280;28;20018;-56
2022/03/21 00:22:48;;;;;;;57.07;42.50;;;;;;;1.59;70.32;102890.34;5043925;28;20104;-56
2022/03/21 00:25:13;;;;;;;56.90;43.00;;;;;;;1.58;70.14;102888.66;5035370;28;20029;-57
2022/03/21 00:27:40;;;;;;;60.33;43.70;;;;;;;1.56;69.64;102899.16;5034127;28;20534;-57
2022/03/21 00:30:07;;;;;;;59.43;43.50;;;;;;;1.53;69.78;102895.78;5034870;28;20120;-56
2022/03/21 00:32:32;;;;;;;56.90;42.23;;;;;;;1.51;70.17;102897.59;5042810;28;20034;-56
2022/03/21 00:34:57;;;;;;;58.97;42.63;;;;;;;1.53;70.63;102898.41;5034623;28;20676;-57
2022/03/21 00:37:23;;;;;;;59.00;43.33;;;;;;;1.47;70.00;102902.94;5032509;28;20100;-56
2022/03/21 00:39:49;;;;;;;61.50;42.87;;;;;;;1.50;70.70;102896.75;5033771;28;20464;-56
2022/03/21 00:42:14;;;;;;;55.97;42.33;;;;;;;1.37;70.79;102901.50;5033145;28;20025;-57
2022/03/21 00:44:40;;;;;;;59.60;43.37;;;;;;;1.31;71.18;102907.81;5034058;28;20421;-56
2022/03/21 00:47:05;;;;;;;54.73;40.27;;;;;;;1.33;71.29;102907.78;5034003;28;20029;-56
2022/03/21 00:49:31;;;;;;;53.97;39.40;;;;;;;1.27;71.66;102910.56;5033464;28;20025;-57
2022/03/21 00:51:56;;;;;;;52.23;38.57;;;;;;;1.23;72.40;102912.41;5031469;28;20029;-56
2022/03/21 00:54:21;;;;;;;55.80;39.93;;;;;;;1.19;71.51;102908.19;5038139;28;20045;-56
2022/03/21 00:56:46;;;;;;;52.77;39.07;;;;;;;1.09;72.00;102905.03;5033556;28;20024;-56
2022/03/21 00:59:12;;;;;;;56.83;41.33;;;;;;;1.02;72.39;102906.09;5033819;28;20049;-57
2022/03/21 01:01:37;;;;;;;58.77;39.90;;;;;;;1.02;71.98;102906.09;5033209;28;20419;-56
2022/03/21 01:04:02;;;;;;;55.23;39.70;;;;;;;0.95;72.50;102905.44;5033438;28;20049;-56
2022/03/21 01:06:28;;;;;;;58.23;42.30;;;;;;;0.84;72.41;102913.59;5033078;28;20047;-56
2022/03/21 01:08:53;;;;;;;56.37;40.30;;;;;;;0.94;72.19;102912.41;5033095;28;20038;-56
2022/03/21 01:11:19;;;;;;;57.30;41.80;;;;;;;0.94;72.82;102908.97;5032928;28;20079;-56
2022/03/21 01:13:44;;;;;;;57.20;42.40;;;;;;;0.95;72.80;102921.13;5033687;28;20037;-56
2022/03/21 01:16:09;;;;;;;59.37;42.27;;;;;;;0.96;72.59;102921.97;5032924;28;20104;-56
2022/03/21 01:18:35;;;;;;;60.00;42.83;;;;;;;0.90;72.41;102916.03;5032938;28;20046;-57
2022/03/21 01:21:00;;;;;;;62.57;44.37;;;;;;;0.84;72.50;102912.75;5031668;28;20069;-57
2022/03/21 01:23:26;;;;;;;67.13;43.80;;;;;;;0.82;72.33;102915.41;5033280;28;20029;-57
2022/03/21 01:25:51;;;;;;;61.30;44.00;;;;;;;0.86;72.23;102917.03;5031630;28;20044;-56
2022/03/21 01:28:17;;;;;;;57.63;42.87;;;;;;;0.82;72.46;102915.41;5033229;28;20070;-57
2022/03/21 01:30:42;;;;;;;60.93;43.40;;;;;;;0.76;72.84;102918.22;5032795;28;20558;-57
2022/03/21 01:33:07;;;;;;;62.40;44.07;;;;;;;0.81;73.10;102913.69;5033226;28;20108;-56
2022/03/21 01:35:33;;;;;;;67.03;46.93;;;;;;;0.80;73.21;102912.00;5032541;28;20481;-57
2022/03/21 01:37:58;;;;;;;65.47;46.23;;;;;;;0.73;72.90;102920.91;5029497;28;20029;-56
2022/03/21 01:40:24;;;;;;;65.50;46.10;;;;;;;0.75;73.49;102924.34;5032534;28;20167;-56
2022/03/21 01:42:49;;;;;;;67.53;48.00;;;;;;;0.70;73.05;102923.63;5022271;28;20416;-56
2022/03/21 01:45:15;;;;;;;66.07;46.27;;;;;;;0.68;72.73;102922.81;5032230;28;20041;-56
2022/03/21 01:47:41;;;;;;;68.17;46.53;;;;;;;0.64;72.68;102933.34;5031790;28;20053;-56
2022/03/21 01:50:08;;;;;;;65.27;44.73;;;;;;;0.69;72.93;102925.34;5032287;28;20065;-56
2022/03/21 01:52:36;;;;;;;66.73;45.33;;;;;;;0.66;73.35;102922.84;5031639;28;20087;-57
2022/03/21 01:57:47;;;;;;;65.93;46.10;;;;;;;0.53;73.37;102925.81;5032643;28;20127;-57
2022/03/21 02:00:13;;;;;;;64.53;46.50;;;;;;;0.36;73.98;102918.47;5032273;28;20053;-57
2022/03/21 02:02:39;;;;;;;66.33;46.60;;;;;;;0.42;74.45;102925.25;5031897;28;20048;-57
2022/03/21 02:05:05;;;;;;;69.53;46.63;;;;;;;0.36;73.74;102918.47;5031889;28;20026;-56
2022/03/21 02:07:30;;;;;;;65.70;46.33;;;;;;;0.37;73.79;102920.19;5031628;28;20033;-56
2022/03/21 02:09:55;;;;;;;69.40;46.23;;;;;;;0.39;74.14;102923.59;5032073;28;20048;-55
2022/03/21 02:12:21;;;;;;;65.43;45.40;;;;;;;0.29;73.72;102927.34;5030758;28;20667;-56
2022/03/21 02:14:47;;;;;;;63.90;45.43;;;;;;;0.30;74.03;102920.38;5029956;28;20034;-56
2022/03/21 02:17:18;;;;;;;64.03;45.03;;;;;;;0.34;74.29;102920.25;5031975;28;20499;-56
2022/03/21 02:19:45;;;;;;;65.83;46.40;;;;;;;0.24;74.15;102916.16;5027078;28;20030;-55
2022/03/21 02:22:27;;;;;;;67.20;45.50;;;;;;;0.29;73.75;102927.34;5031462;28;20060;-55
2022/03/21 02:24:56;;;;;;;64.43;44.97;;;;;;;0.16;74.41;102920.75;5031689;28;20025;-56
2022/03/21 02:27:26;;;;;;;67.17;45.70;;;;;;;0.10;74.13;102917.41;5030363;28;20029;-55
2022/03/21 02:29:52;;;;;;;63.53;45.57;;;;;;;0.17;74.49;102932.91;5030906;28;20045;-56
2022/03/21 02:32:18;;;;;;;65.97;44.97;;;;;;;0.21;73.91;102929.31;5029386;28;20109;-56
2022/03/21 02:34:45;;;;;;;65.33;45.23;;;;;;;0.13;74.25;102927.78;5028838;28;20648;-56
2022/03/21 02:37:15;;;;;;;63.40;45.47;;;;;;;0.09;74.33;102920.94;5031243;28;20475;-56
2022/03/21 02:39:42;;;;;;;67.50;45.43;;;;;;;0.11;74.01;102934.78;5031416;28;20369;-56
2022/03/21 02:42:08;;;;;;;68.70;47.13;;;;;;;0.12;74.18;102931.28;5031565;28;20130;-57
2022/03/21 02:44:35;;;;;;;69.37;48.97;;;;;;;0.08;74.65;102924.44;5020503;28;20459;-55
2022/03/21 02:47:01;;;;;;;71.07;48.50;;;;;;;0.05;75.13;102928.88;5031319;28;20108;-56
2022/03/21 02:49:27;;;;;;;73.00;49.07;;;;;;;0.06;74.61;102931.47;5032073;28;20061;-57
2022/03/21 02:51:54;;;;;;;66.67;47.00;;;;;;;0.07;74.73;102927.06;5031019;28;20060;-56
2022/03/21 02:54:22;;;;;;;68.40;47.00;;;;;;;0.07;74.78;102922.72;5029376;28;20030;-56
2022/03/21 02:56:47;;;;;;;70.07;47.80;;;;;;;0.08;75.18;102926.19;5031441;28;20029;-55
2022/03/21 02:59:15;;;;;;;68.50;47.47;;;;;;;0.02;74.65;102928.94;5031606;28;20112;-56
2022/03/21 03:01:42;;;;;;;68.73;47.07;;;;;;;0.05;74.36;102924.50;5026777;28;20037;-56
2022/03/21 03:04:07;;;;;;;63.73;45.07;;;;;;;-0.01;74.65;102924.66;5028270;28;20057;-56
2022/03/21 03:06:33;;;;;;;71.10;46.73;;;;;;;-0.03;74.39;102921.25;5030688;28;20068;-55
2022/03/21 03:08:59;;;;;;;66.67;46.40;;;;;;;-0.04;74.80;102919.53;5031810;28;20037;-56
2022/03/21 03:11:24;;;;;;;69.33;47.00;;;;;;;0.02;74.72;102921.13;5031549;28;20033;-55
2022/03/21 03:13:49;;;;;;;70.10;47.27;;;;;;;-0.01;74.87;102919.44;5031078;28;20079;-56
2022/03/21 03:16:14;;;;;;;65.03;46.63;;;;;;;-0.05;74.90;102923.06;5030084;28;20065;-56
2022/03/21 03:18:44;;;;;;;67.60;46.23;;;;;;;-0.06;74.77;102926.53;5030829;28;20037;-56
2022/03/21 03:21:10;;;;;;;70.00;47.60;;;;;;;-0.11;75.69;102931.03;5031478;28;20589;-56
2022/03/21 03:23:38;;;;;;;72.43;48.80;;;;;;;-0.26;75.87;102922.69;5030943;28;20040;-56
2022/03/21 03:26:04;;;;;;;71.50;48.03;;;;;;;-0.22;75.37;102928.69;5027277;28;20750;-56
2022/03/21 03:28:31;;;;;;;70.23;48.23;;;;;;;-0.20;75.50;102929.53;5030170;28;20060;-56
2022/03/21 03:30:59;;;;;;;70.70;47.53;;;;;;;-0.20;75.16;102930.38;5023855;28;20037;-55
2022/03/21 03:33:25;;;;;;;74.30;47.77;;;;;;;-0.23;75.34;102920.03;5030493;28;20113;-56
2022/03/21 03:35:51;;;;;;;74.30;47.17;;;;;;;-0.23;75.96;102930.47;5029341;28;20107;-56
2022/03/21 03:38:17;;;;;;;71.80;48.10;;;;;;;-0.22;76.01;102932.16;5033626;28;20724;-57
2022/03/21 03:40:43;;;;;;;73.27;49.00;;;;;;;-0.24;75.43;102939.19;5020906;28;20089;-57
2022/03/21 03:43:10;;;;;;;76.60;50.43;;;;;;;-0.25;76.35;102939.22;5033155;28;20033;-56
2022/03/21 03:45:36;;;;;;;72.93;49.40;;;;;;;-0.24;76.28;102941.78;5033793;28;20528;-56
2022/03/21 03:48:02;;;;;;;76.67;50.07;;;;;;;-0.23;76.38;102940.88;5034513;28;20117;-56
2022/03/21 03:50:27;;;;;;;77.23;50.87;;;;;;;-0.27;76.48;102944.47;5035108;28;20037;-57
2022/03/21 03:52:53;;;;;;;75.43;50.43;;;;;;;-0.34;76.93;102948.13;5034907;28;20365;-56
2022/03/21 03:55:18;;;;;;;70.70;49.80;;;;;;;-0.40;76.44;102936.06;5031899;28;20045;-55
2022/03/21 03:57:45;;;;;;;72.07;50.03;;;;;;;-0.46;77.34;102947.53;5015568;28;20512;-57
2022/03/21 04:00:12;;;;;;;75.83;51.43;;;;;;;-0.47;76.93;102948.41;5033876;28;20035;-56
2022/03/21 04:05:21;;;;;;;73.57;50.60;;;;;;;-0.42;76.92;102946.56;5034727;28;20033;-56
2022/03/21 04:07:47;;;;;;;73.70;49.10;;;;;;;-0.36;76.79;102949.88;5034587;28;20038;-55
2022/03/21 04:10:12;;;;;;;78.93;50.47;;;;;;;-0.41;77.04;102945.66;5032645;28;20042;-56
2022/03/21 04:12:37;;;;;;;81.33;50.20;;;;;;;-0.41;77.64;102952.63;5033493;28;20037;-55
2022/03/21 04:15:03;;;;;;;83.47;51.40;;;;;;;-0.47;77.66;102948.41;5034171;28;20029;-54
2022/03/21 04:17:28;;;;;;;75.63;49.67;;;;;;;-0.43;77.84;102944.81;5032480;28;20029;-56
2022/03/21 04:19:54;;;;;;;75.97;49.37;;;;;;;-0.41;77.17;102943.06;5034135;28;20091;-57
2022/03/21 04:22:19;;;;;;;76.30;49.07;;;;;;;-0.42;77.39;102948.31;5034485;28;20421;-56
2022/03/21 04:24:44;;;;;;;84.40;50.67;;;;;;;-0.46;77.41;102950.13;5033980;28;20037;-55
2022/03/21 04:27:10;;;;;;;78.97;50.10;;;;;;;-0.53;78.18;102948.56;5033352;28;20033;-57
2022/03/21 04:29:35;;;;;;;77.63;49.50;;;;;;;-0.57;77.83;102942.56;5033386;28;20048;-56
2022/03/21 04:32:01;;;;;;;77.00;50.07;;;;;;;-0.53;78.04;102947.69;5033951;28;20495;-56
2022/03/21 04:34:27;;;;;;;78.23;49.93;;;;;;;-0.49;77.99;102947.56;5034286;28;20559;-56
2022/03/21 04:36:52;;;;;;;83.43;50.17;;;;;;;-0.54;77.81;102931.22;5029917;28;20036;-56
2022/03/21 04:39:18;;;;;;;77.20;49.40;;;;;;;-0.49;77.63;102939.75;5045085;28;20025;-55
2022/03/21 04:41:43;;;;;;;74.37;48.33;;;;;;;-0.48;77.79;102945.84;5033669;28;20062;-57
2022/03/21 04:44:08;;;;;;;76.57;48.87;;;;;;;-0.52;77.32;102949.41;5032442;28;20026;-56
2022/03/21 04:46:33;;;;;;;74.93;49.60;;;;;;;-0.52;77.65;102945.06;5028310;28;20033;-56
2022/03/21 04:48:59;;;;;;;78.70;48.67;;;;;;;-0.51;77.38;102949.38;5025803;28;20034;-55
2022/03/21 04:51:24;;;;;;;74.20;47.10;;;;;;;-0.52;77.44;102950.28;5027530;28;20038;-56
2022/03/21 04:53:49;;;;;;;78.33;48.90;;;;;;;-0.49;77.13;102950.19;5043443;28;20037;-55
2022/03/21 04:56:15;;;;;;;80.00;49.73;;;;;;;-0.52;76.85;102949.41;5031938;28;20036;-57
2022/03/21 04:58:40;;;;;;;73.33;48.30;;;;;;;-0.47;77.75;102948.41;5033295;28;20069;-56
2022/03/21 05:01:06;;;;;;;71.67;48.37;;;;;;;-0.52;76.50;102955.50;5027582;28;20036;-56
2022/03/21 05:03:32;;;;;;;76.00;48.53;;;;;;;-0.58;77.16;102956.47;5030435;28;20033;-57
2022/03/21 05:05:58;;;;;;;78.23;49.27;;;;;;;-0.56;77.53;102964.25;5033263;28;20116;-56
2022/03/21 05:08:24;;;;;;;78.57;50.37;;;;;;;-0.56;77.72;102962.53;5032674;28;20033;-57
2022/03/21 05:10:49;;;;;;;76.87;49.20;;;;;;;-0.52;78.18;102965.91;5032951;28;20062;-56
2022/03/21 05:13:15;;;;;;;73.70;48.67;;;;;;;-0.59;77.58;102969.56;5033483;28;20045;-57
2022/03/21 05:15:40;;;;;;;84.70;50.63;;;;;;;-0.60;77.61;102979.13;5032018;28;20036;-56
2022/03/21 05:18:05;;;;;;;78.87;50.40;;;;;;;-0.65;77.96;102967.09;5032608;28;20043;-56
2022/03/21 05:20:31;;;;;;;79.67;48.90;;;;;;;-0.60;78.12;102970.47;5032459;28;20037;-57
2022/03/21 05:31:09;;;;;;;78.87;50.10;;;;;;;-0.64;78.66;102971.41;5027100;28;20131;-56
2022/03/21 05:36:23;;;;;;;79.00;50.40;;;;;;;-0.62;78.97;102974.84;5032888;28;20090;-55
2022/03/21 05:38:49;;;;;;;76.27;49.47;;;;;;;-0.60;79.19;102973.91;5032055;28;20040;-54
2022/03/21 05:41:14;;;;;;;77.60;50.33;;;;;;;-0.62;79.03;102975.69;5027566;28;20018;-55
2022/03/21 05:43:40;;;;;;;90.17;52.53;;;;;;;-0.64;79.25;102966.19;5027260;28;20044;-55
2022/03/21 05:46:06;;;;;;;77.97;50.87;;;;;;;-0.61;79.21;102972.19;5023782;28;20029;-54
2022/03/21 05:48:51;;;;;;;87.90;51.50;;;;;;;-0.65;79.13;102973.16;5021903;28;20022;-58
2022/03/21 05:51:22;;;;;;;86.33;51.57;;;;;;;-0.68;79.69;102971.47;5022294;28;20033;-59
2022/03/21 05:53:48;;;;;;;85.20;51.47;;;;;;;-0.71;79.66;102971.56;5022148;28;20021;-59
2022/03/21 05:56:14;;;;;;;82.20;51.77;;;;;;;-0.63;79.68;102978.34;5026118;28;20384;-59
2022/03/21 05:58:40;;;;;;;85.67;52.60;;;;;;;-0.68;79.58;102973.22;5019485;28;20038;-59
2022/03/21 06:01:06;;;;;;;79.20;51.00;;;;;;;-0.63;79.34;102979.22;5021826;28;20025;-58
2022/03/21 06:03:31;;;;;;;81.07;51.73;;;;;;;-0.64;79.73;102981.84;5024065;28;20516;-55
2022/03/21 06:05:57;;;;;;;85.57;51.33;;;;;;;-0.66;79.47;102986.25;5020234;28;20045;-57
2022/03/21 06:08:23;;;;;;;82.93;50.90;;;;;;;-0.61;79.42;102981.75;5022296;28;20029;-56
2022/03/21 06:10:49;;;;;;;82.50;50.87;;;;;;;-0.60;79.88;102984.31;5033041;28;20118;-57
2022/03/21 06:13:15;;;;;;;79.93;51.57;;;;;;;-0.56;80.10;102990.31;5019403;28;20056;-58
2022/03/21 06:15:41;;;;;;;82.17;53.53;;;;;;;-0.55;80.39;102987.69;5026906;28;20033;-58
2022/03/21 06:18:11;;;;;;;82.30;51.90;;;;;;;-0.51;80.68;102991.09;5031885;28;20033;-56
2022/03/21 06:20:37;;;;;;;76.83;50.60;;;;;;;-0.47;80.66;102997.94;5022045;28;20053;-58
2022/03/21 06:23:03;;;;;;;80.23;51.23;;;;;;;-0.45;80.62;102998.75;5025685;28;20032;-58
2022/03/21 06:25:28;;;;;;;85.03;52.27;;;;;;;-0.44;80.67;102997.84;5021085;28;20025;-56
2022/03/21 06:27:53;;;;;;;81.17;50.77;;;;;;;-0.37;80.48;102995.09;5023470;28;20110;-56
2022/03/21 06:30:19;;;;;;;83.73;52.17;;;;;;;-0.35;80.70;103008.97;5032411;28;20108;-56
2022/03/21 06:32:44;;;;;;;85.03;51.27;;;;;;;-0.34;81.04;103010.69;5037919;28;20028;-56
2022/03/21 06:35:10;;;;;;;76.67;49.43;;;;;;;-0.23;80.88;103002.59;5035986;28;20383;-56
2022/03/21 06:37:37;;;;;;;75.10;49.20;;;;;;;-0.24;81.22;103006.97;5037914;28;20030;-56
2022/03/21 06:40:03;;;;;;;80.73;50.77;;;;;;;-0.20;81.50;103003.38;5035226;28;20516;-57
2022/03/21 06:42:28;;;;;;;78.40;50.53;;;;;;;-0.11;81.71;103007.53;5036472;28;20033;-57
2022/03/21 06:44:53;;;;;;;83.73;52.27;;;;;;;-0.04;82.67;103006.47;5044062;28;20061;-55
2022/03/21 06:47:19;;;;;;;83.57;50.50;;;;;;;0.05;82.55;103015.81;5032110;28;20034;-55
2022/03/21 06:49:44;;;;;;;76.50;49.03;;;;;;;0.13;82.13;103016.50;5031461;28;20487;-56
2022/03/21 06:52:10;;;;;;;81.53;51.67;;;;;;;0.22;83.40;103017.16;5030194;28;20033;-56
2022/03/21 06:54:36;;;;;;;79.20;50.47;;;;;;;0.29;82.81;103016.09;5031964;28;20052;-56
2022/03/21 06:57:02;;;;;;;77.03;49.77;;;;;;;0.38;83.02;103015.84;5019590;28;20377;-55
2022/03/21 06:59:29;;;;;;;74.80;49.70;;;;;;;0.47;83.13;103019.09;5031762;28;20021;-55
2022/03/21 07:01:55;;;;;;;83.00;52.30;;;;;;;0.57;83.67;103025.81;5031598;28;20457;-55
2022/03/21 07:04:21;;;;;;;81.57;51.50;;;;;;;0.60;83.66;103027.47;5031144;28;20484;-57
2022/03/21 07:06:46;;;;;;;78.43;50.10;;;;;;;0.69;83.49;103021.16;5030736;28;20061;-55
2022/03/21 07:09:11;;;;;;;77.67;51.10;;;;;;;0.71;84.43;103019.34;5031192;28;20029;-56
2022/03/21 07:11:37;;;;;;;87.10;52.87;;;;;;;0.83;85.32;103026.81;5031086;28;20484;-55
2022/03/21 07:14:04;;;;;;;87.37;54.10;;;;;;;0.93;85.60;103032.63;5026074;28;20022;-56
2022/03/21 07:16:29;;;;;;;79.33;50.53;;;;;;;0.98;84.66;103030.75;5030409;28;20031;-57
2022/03/21 07:18:54;;;;;;;76.93;50.43;;;;;;;1.06;84.52;103028.78;5030575;28;20030;-57
2022/03/21 07:21:20;;;;;;;84.00;53.43;;;;;;;1.17;85.03;103041.53;5030763;28;20491;-58
2022/03/21 07:23:45;;;;;;;82.77;52.10;;;;;;;1.25;84.96;103035.22;5031947;28;20519;-56
2022/03/21 07:26:12;;;;;;;78.87;50.57;;;;;;;1.36;85.32;103035.75;5031067;28;20391;-56
2022/03/21 07:28:38;;;;;;;84.47;52.97;;;;;;;1.47;85.46;103030.19;5028373;28;20040;-57
2022/03/21 07:31:03;;;;;;;83.43;53.53;;;;;;;1.59;85.60;103031.59;5036521;28;20029;-56
2022/03/21 07:33:28;;;;;;;81.27;52.33;;;;;;;1.64;85.30;103034.91;5023472;28;20026;-56
2022/03/21 07:35:54;;;;;;;88.07;55.03;;;;;;;1.77;86.52;103034.53;5029018;28;20421;-57
2022/03/21 07:38:21;;;;;;;83.37;53.30;;;;;;;1.86;86.83;103036.81;5027664;28;20104;-56
2022/03/21 07:40:46;;;;;;;91.57;53.53;;;;;;;1.95;86.66;103033.91;5019402;28;20049;-60
2022/03/21 07:43:12;;;;;;;82.73;53.27;;;;;;;2.09;86.72;103035.22;5026436;28;20064;-57
2022/03/21 07:48:23;;;;;;;92.40;54.33;;;;;;;2.38;88.40;103041.22;5031040;28;20087;-57
2022/03/21 07:50:48;;;;;;;84.93;54.27;;;;;;;2.55;88.23;103044.13;5036676;28;20025;-57
2022/03/21 07:53:13;;;;;;;90.20;51.50;;;;;;;2.55;87.46;103032.78;5031811;28;20515;-57
2022/03/21 07:55:38;;;;;;;84.50;49.03;;;;;;;2.71;87.70;103043.56;5031709;28;20105;-57
2022/03/21 07:58:04;;;;;;;82.43;49.23;;;;;;;2.86;87.82;103042.16;5031802;28;20525;-57
2022/03/21 08:00:30;;;;;;;71.37;45.63;;;;;;;2.96;87.72;103046.16;5031704;28;20030;-57
2022/03/21 08:02:58;;;;;;;75.20;46.63;;;;;;;3.14;88.37;103041.13;5028074;28;20105;-58
2022/03/21 08:05:23;;;;;;;71.07;45.30;;;;;;;3.35;88.62;103044.69;5025545;28;20037;-57
2022/03/21 08:07:49;;;;;;;68.80;44.33;;;;;;;3.46;87.79;103040.81;5025149;28;20045;-57
2022/03/21 08:10:16;;;;;;;67.47;42.00;;;;;;;3.62;87.78;103039.25;5029870;28;20617;-57
2022/03/21 08:12:42;;;;;;;61.40;39.77;;;;;;;3.73;87.59;103038.84;5027729;28;20048;-57
2022/03/21 08:15:08;;;;;;;56.73;37.47;;;;;;;3.91;87.17;103041.66;5028932;28;20061;-57
2022/03/21 08:17:45;;;;;;;59.07;37.13;;;;;;;4.11;87.16;103043.44;5031426;28;20036;-57
2022/03/21 08:20:10;;;;;;;61.40;36.47;;;;;;;4.25;86.63;103049.88;5039914;28;20029;-57
2022/03/21 08:22:35;;;;;;;57.23;34.63;;;;;;;4.40;85.84;103046.59;5034442;28;20033;-57
2022/03/21 08:25:01;;;;;;;57.70;34.20;;;;;;;4.53;85.15;103043.44;5035476;28;20029;-58
2022/03/21 08:27:26;;;;;;;49.67;30.03;;;;;;;4.64;83.93;103046.44;5029211;28;20487;-57
2022/03/21 08:29:51;;;;;;;44.13;29.03;;;;;;;4.76;83.20;103045.06;5032453;28;20079;-57
2022/03/21 08:32:16;;;;;;;43.60;27.40;;;;;;;4.86;82.82;103040.22;5035062;28;20037;-57
2022/03/21 08:34:42;;;;;;;43.73;27.73;;;;;;;4.96;82.44;103040.66;5036429;28;20416;-56
2022/03/21 08:37:07;;;;;;;41.37;26.90;;;;;;;5.08;81.74;103044.53;5030078;28;20033;-57
2022/03/21 08:39:32;;;;;;;42.97;25.97;;;;;;;5.22;81.21;103041.22;5023055;28;20040;-57
2022/03/21 08:41:57;;;;;;;37.03;23.80;;;;;;;5.42;80.03;103042.94;5034717;28;20042;-57
2022/03/21 08:44:23;;;;;;;40.33;23.60;;;;;;;5.54;79.79;103040.63;5041523;28;20091;-57
2022/03/21 08:46:48;;;;;;;38.45;23.27;;;;;;;5.68;78.71;103043.47;5030653;28;20421;-57
2022/03/21 08:49:27;;;;;;;37.22;22.25;;;;;;;5.78;78.20;103039.44;5031292;28;20044;-58
2022/03/21 08:51:53;;;;;;;35.85;20.83;;;;;;;5.98;77.24;103035.00;5037318;28;20091;-58
2022/03/21 08:54:18;;;;;;;33.67;21.25;;;;;;;6.15;75.67;103031.53;5032533;28;20022;-57
2022/03/21 08:56:44;;;;;;;33.47;21.05;;;;;;;6.30;75.62;103035.16;5036826;28;20032;-57
2022/03/21 08:59:09;;;;;;;30.00;20.45;;;;;;;6.55;73.64;103033.88;5033989;28;20037;-57
2022/03/21 09:01:34;;;;;;;32.45;20.13;;;;;;;6.66;73.73;103038.56;5038910;28;20041;-57
2022/03/21 09:04:02;;;;;;;33.00;19.52;;;;;;;6.80;72.38;103032.56;5028638;28;20045;-58
2022/03/21 09:06:29;;;;;;;36.08;19.08;;;;;;;6.98;72.58;103043.06;5031251;28;20030;-58
2022/03/21 09:08:55;;;;;;;30.48;18.73;;;;;;;7.04;71.59;103044.50;5033148;28;20408;-58
2022/03/21 09:11:21;;;;;;;31.02;19.25;;;;;;;7.20;70.53;103044.53;5024764;28;20501;-56
2022/03/21 09:13:48;;;;;;;33.50;19.52;;;;;;;7.25;70.14;103037.19;5031599;28;20084;-57
2022/03/21 09:16:14;;;;;;;31.40;19.25;;;;;;;7.38;69.86;103043.53;5030156;28;20037;-57
2022/03/21 09:18:40;;;;;;;34.92;19.13;;;;;;;7.48;70.41;103040.34;5029824;28;20034;-58
2022/03/21 09:21:06;;;;;;;30.20;19.40;;;;;;;7.54;70.27;103042.63;5030548;28;20071;-57
2022/03/21 09:23:31;;;;;;;32.75;20.38;;;;;;;7.64;69.69;103043.81;5031949;28;20034;-58
2022/03/21 09:25:57;;;;;;;32.15;20.50;;;;;;;7.71;68.64;103039.06;5033088;28;20064;-57
2022/03/21 09:28:22;;;;;;;31.48;20.67;;;;;;;7.90;68.81;103038.00;5028732;28;20029;-56
2022/03/21 09:30:48;;;;;;;35.85;21.70;;;;;;;7.95;68.34;103030.66;5029149;28;20048;-57
2022/03/21 09:33:15;;;;;;;33.72;20.77;;;;;;;8.02;68.69;103031.97;5029552;28;20033;-57
2022/03/21 09:35:42;;;;;;;35.30;21.10;;;;;;;8.21;66.73;103026.44;5036469;28;20472;-57
2022/03/21 09:38:08;;;;;;;34.45;20.95;;;;;;;8.24;67.21;103027.22;5033018;28;20034;-57
2022/03/21 09:40:33;;;;;;;31.77;20.77;;;;;;;8.26;66.21;103022.69;5024218;28;20037;-57
2022/03/21 09:42:59;;;;;;;34.45;20.15;;;;;;;8.26;66.30;103027.97;5030841;28;20053;-57
2022/03/21 09:45:24;;;;;;;34.05;20.27;;;;;;;8.38;67.09;103016.66;5041046;28;20381;-56
2022/03/21 09:50:35;;;;;;;30.75;19.38;;;;;;;8.45;65.84;103012.69;5037244;28;20048;-57
2022/03/21 09:53:01;;;;;;;32.28;19.45;;;;;;;8.59;65.65;103016.31;5035487;28;20167;-57
2022/03/21 09:55:27;;;;;;;32.33;18.80;;;;;;;8.69;64.58;103017.44;5033063;28;20056;-57
2022/03/21 09:57:52;;;;;;;33.53;17.95;;;;;;;8.85;63.53;103019.13;5034255;28;20530;-57
2022/03/21 10:00:18;;;;;;;30.23;17.95;;;;;;;8.94;63.52;103018.53;5043279;28;20032;-57
2022/03/21 10:02:43;;;;;;;36.67;18.95;;;;;;;8.97;63.38;103023.66;5042087;28;20041;-57
2022/03/21 10:05:33;;;;;;;32.17;18.83;;;;;;;8.99;63.94;103016.47;5036317;28;20641;-57
2022/03/21 10:08:27;;;;;;;28.88;18.25;;;;;;;9.00;64.06;103010.25;5030800;28;20646;-57
2022/03/21 10:10:55;;;;;;;;;;;;;;;9.01;65.17;103006.66;5030681;28;20034;-57
2022/03/21 10:13:22;;;;;;;32.08;18.42;;;;;;;9.21;62.65;103004.50;5044484;28;20428;-57
2022/03/21 10:15:48;;;;;;;29.90;17.13;;;;;;;9.31;61.52;103004.75;5036618;28;20071;-57
2022/03/21 10:18:13;;;;;;;30.27;17.45;;;;;;;9.40;61.46;103004.19;5042320;28;20048;-57
2022/03/21 10:20:40;;;;;;;28.38;16.67;;;;;;;9.55;60.67;103002.31;5037693;28;20030;-57
2022/03/21 10:23:22;;;;;;;28.92;17.80;;;;;;;9.58;62.56;102997.75;5029248;28;20043;-56
2022/03/21 10:25:48;;;;;;;29.75;18.10;;;;;;;9.74;60.77;102995.78;5040942;28;20025;-56
2022/03/21 10:28:35;;;;;;;30.42;17.33;;;;;;;9.82;60.76;102993.47;5032618;28;20022;-57
2022/03/21 10:31:02;;;;;;;31.65;17.73;;;;;;;9.99;59.71;102999.44;5033567;28;20060;-56
2022/03/21 10:33:28;;;;;;;31.67;17.95;;;;;;;10.18;59.30;102998.16;5032151;28;20025;-57
2022/03/21 10:35:53;;;;;;;30.45;17.85;;;;;;;10.13;59.04;102995.84;5031782;28;20029;-57
2022/03/21 10:38:35;;;;;;;29.42;17.42;;;;;;;10.28;58.43;102995.72;5032406;28;20079;-57
2022/03/21 10:41:08;;;;;;;30.10;17.42;;;;;;;10.38;59.18;102993.28;5039039;28;20036;-57
2022/03/21 10:43:33;;;;;;;;;;;;;;;10.43;60.40;103001.81;5041416;28;20036;-57
2022/03/21 10:45:58;;;;;;;29.10;18.30;;;;;;;10.60;58.04;102998.81;5031670;28;19913;-57
2022/03/21 10:48:31;;;;;;;31.73;18.10;;;;;;;10.62;58.38;102996.91;5036592;28;20496;-57
2022/03/21 10:51:00;;;;;;;;;;;;;;;10.59;59.96;102997.13;5030855;28;20152;-57
2022/03/21 10:53:27;;;;;;;30.23;18.45;;;;;;;10.73;58.41;102997.94;5023250;28;19913;-57
2022/03/21 10:56:01;;;;;;;29.80;18.95;;;;;;;10.90;57.53;102994.94;5030062;28;20025;-57
2022/03/21 10:58:39;;;;;;;33.60;19.08;;;;;;;11.06;56.69;102993.84;5029000;28;20049;-58
2022/03/21 11:01:13;;;;;;;29.73;18.77;;;;;;;11.12;56.03;102990.72;5030944;28;20035;-57
2022/03/21 11:03:42;;;;;;;32.55;19.70;;;;;;;11.12;56.12;102972.16;5043107;28;20029;-57
2022/03/21 11:06:09;;;;;;;37.85;18.70;;;;;;;11.20;57.33;102978.69;5034502;28;20084;-57
2022/03/21 11:08:35;;;;;;;29.00;18.75;;;;;;;11.28;56.83;102978.97;5031804;28;20251;-57
2022/03/21 11:11:03;;;;;;;31.25;19.35;;;;;;;11.51;56.20;102974.63;5030263;28;20049;-57
2022/03/21 11:13:29;;;;;;;30.98;18.70;;;;;;;11.54;57.06;102978.81;5042262;28;20506;-57
2022/03/21 11:15:55;;;;;;;30.48;20.35;;;;;;;11.59;56.18;102979.34;5022403;28;20477;-57
2022/03/21 11:18:21;;;;;;;31.55;18.60;;;;;;;11.55;56.27;102973.41;5024339;28;20037;-57
2022/03/21 11:20:47;;;;;;;30.60;19.02;;;;;;;11.64;56.04;102971.88;5038413;28;20021;-57
2022/03/21 11:23:15;;;;;;;30.88;19.25;;;;;;;11.78;55.75;102984.13;5035620;28;20033;-56
2022/03/21 11:25:48;;;;;;;31.63;19.33;;;;;;;11.96;55.47;102971.25;5038176;28;20021;-57
2022/03/21 11:28:39;;;;;;;;;;;;;;;12.00;58.27;102971.84;5024883;28;20613;-57
2022/03/21 11:31:30;;;;;;;30.65;18.08;;;;;;;12.20;56.14;102962.31;5029547;28;19943;-57
2022/03/21 11:34:27;;;;;;;30.20;18.77;;;;;;;12.21;55.58;102974.69;5029912;28;20491;-57